sensor_id;sensor_type;location;lat;lon;timestamp;temperature;humidity
17639;DHT22;8938;53.546;9.954;2023-07-31T00:00:38;20.00;99.90
17639;DHT22;8938;53.546;9.954;2023-07-31T00:03:03;19.90;99.90
17639;DHT22;8938;53.546;9.954;2023-07-31T00:05:29;19.90;99.90
17639;DHT22;8938;53.546;9.954;2023-07-31T00:07:54;20.00;99.90
17639;DHT22;8938;53.546;9.954;2023-07-31T00:10:20;19.90;99.90
17639;DHT22;8938;53.546;9.954;2023-07-31T00:12:46;19.90;99.90
17639;DHT22;8938;53.546;9.954;2023-07-31T00:15:13;19.90;99.90
17639;DHT22;8938;53.546;9.954;2023-07-31T00:17:39;19.90;99.90
17639;DHT22;8938;53.546;9.954;2023-07-31T00:20:05;19.90;99.90
17639;DHT22;8938;53.546;9.954;2023-07-31T00:22:30;19.90;99.90
17639;DHT22;8938;53.546;9.954;2023-07-31T00:24:56;20.00;99.90
17639;DHT22;8938;53.546;9.954;2023-07-31T00:27:23;20.00;99.90
17639;DHT22;8938;53.546;9.954;2023-07-31T00:29:48;20.00;99.90
17639;DHT22;8938;53.546;9.954;2023-07-31T00:32:14;19.90;99.90
17639;DHT22;8938;53.546;9.954;2023-07-31T00:34:39;19.80;99.90
17639;DHT22;8938;53.546;9.954;2023-07-31T00:37:05;19.90;99.90
17639;DHT22;8938;53.546;9.954;2023-07-31T00:39:31;19.80;99.90
17639;DHT22;8938;53.546;9.954;2023-07-31T00:41:56;19.80;99.90
17639;DHT22;8938;53.546;9.954;2023-07-31T00:44:22;19.80;99.90
17639;DHT22;8938;53.546;9.954;2023-07-31T00:46:48;19.80;99.90
17639;DHT22;8938;53.546;9.954;2023-07-31T00:49:14;19.70;99.90
17639;DHT22;8938;53.546;9.954;2023-07-31T00:51:39;19.70;99.90
17639;DHT22;8938;53.546;9.954;2023-07-31T00:54:06;19.70;99.90
17639;DHT22;8938;53.546;9.954;2023-07-31T00:56:32;19.60;99.90
17639;DHT22;8938;53.546;9.954;2023-07-31T00:58:57;19.60;99.90
17639;DHT22;8938;53.546;9.954;2023-07-31T01:01:23;19.60;99.90
17639;DHT22;8938;53.546;9.954;2023-07-31T01:03:50;19.60;99.90
17639;DHT22;8938;53.546;9.954;2023-07-31T01:06:40;19.70;99.90
17639;DHT22;8938;53.546;9.954;2023-07-31T01:12:01;19.60;99.90
17639;DHT22;8938;53.546;9.954;2023-07-31T01:14:27;19.60;99.90
17639;DHT22;8938;53.546;9.954;2023-07-31T01:16:52;19.60;99.90
17639;DHT22;8938;53.546;9.954;2023-07-31T01:19:22;19.50;99.90
17639;DHT22;8938;53.546;9.954;2023-07-31T01:27:58;19.50;99.90
17639;DHT22;8938;53.546;9.954;2023-07-31T01:30:28;19.50;99.90
17639;DHT22;8938;53.546;9.954;2023-07-31T01:32:59;19.40;99.90
17639;DHT22;8938;53.546;9.954;2023-07-31T01:35:27;19.30;99.90
17639;DHT22;8938;53.546;9.954;2023-07-31T01:37:53;19.30;99.90
17639;DHT22;8938;53.546;9.954;2023-07-31T01:40:19;19.40;99.90
17639;DHT22;8938;53.546;9.954;2023-07-31T01:42:45;19.40;99.90
17639;DHT22;8938;53.546;9.954;2023-07-31T01:45:10;19.50;99.90
17639;DHT22;8938;53.546;9.954;2023-07-31T01:47:36;19.40;99.90
17639;DHT22;8938;53.546;9.954;2023-07-31T01:50:02;19.40;99.90
17639;DHT22;8938;53.546;9.954;2023-07-31T01:52:27;19.40;99.90
17639;DHT22;8938;53.546;9.954;2023-07-31T01:54:53;19.50;99.90
17639;DHT22;8938;53.546;9.954;2023-07-31T01:57:19;19.50;99.90
17639;DHT22;8938;53.546;9.954;2023-07-31T01:59:44;19.50;99.90
17639;DHT22;8938;53.546;9.954;2023-07-31T02:02:10;19.40;99.90
17639;DHT22;8938;53.546;9.954;2023-07-31T02:04:35;19.40;99.90
17639;DHT22;8938;53.546;9.954;2023-07-31T02:07:01;19.40;99.90
17639;DHT22;8938;53.546;9.954;2023-07-31T02:09:27;19.40;99.90
17639;DHT22;8938;53.546;9.954;2023-07-31T02:11:52;19.40;99.90
17639;DHT22;8938;53.546;9.954;2023-07-31T02:14:18;19.50;99.90
17639;DHT22;8938;53.546;9.954;2023-07-31T02:16:43;19.50;99.90
17639;DHT22;8938;53.546;9.954;2023-07-31T02:19:09;19.50;99.90
17639;DHT22;8938;53.546;9.954;2023-07-31T02:21:34;19.60;99.90
17639;DHT22;8938;53.546;9.954;2023-07-31T02:24:00;19.60;99.90
17639;DHT22;8938;53.546;9.954;2023-07-31T02:26:25;19.60;99.90
17639;DHT22;8938;53.546;9.954;2023-07-31T02:28:51;19.60;99.90
17639;DHT22;8938;53.546;9.954;2023-07-31T02:31:16;19.50;99.90
17639;DHT22;8938;53.546;9.954;2023-07-31T02:33:42;19.40;99.90
17639;DHT22;8938;53.546;9.954;2023-07-31T02:36:07;19.40;99.90
17639;DHT22;8938;53.546;9.954;2023-07-31T02:38:32;19.40;99.90
17639;DHT22;8938;53.546;9.954;2023-07-31T02:40:58;19.40;99.90
17639;DHT22;8938;53.546;9.954;2023-07-31T02:43:24;19.40;99.90
17639;DHT22;8938;53.546;9.954;2023-07-31T02:45:52;19.40;99.90
17639;DHT22;8938;53.546;9.954;2023-07-31T02:48:19;19.40;99.90
17639;DHT22;8938;53.546;9.954;2023-07-31T02:50:45;19.40;99.90
17639;DHT22;8938;53.546;9.954;2023-07-31T02:53:11;19.30;99.90
17639;DHT22;8938;53.546;9.954;2023-07-31T02:55:36;19.30;99.90
17639;DHT22;8938;53.546;9.954;2023-07-31T02:58:02;19.30;99.90
17639;DHT22;8938;53.546;9.954;2023-07-31T03:00:28;19.30;99.90
17639;DHT22;8938;53.546;9.954;2023-07-31T03:02:53;19.30;99.90
17639;DHT22;8938;53.546;9.954;2023-07-31T03:05:19;19.30;99.90
17639;DHT22;8938;53.546;9.954;2023-07-31T03:07:44;19.30;99.90
17639;DHT22;8938;53.546;9.954;2023-07-31T03:10:12;19.30;99.90
17639;DHT22;8938;53.546;9.954;2023-07-31T03:12:38;19.30;99.90
17639;DHT22;8938;53.546;9.954;2023-07-31T03:15:04;19.30;99.90
17639;DHT22;8938;53.546;9.954;2023-07-31T03:17:29;19.30;99.90
17639;DHT22;8938;53.546;9.954;2023-07-31T03:19:55;19.30;99.90
17639;DHT22;8938;53.546;9.954;2023-07-31T03:22:21;19.30;99.90
17639;DHT22;8938;53.546;9.954;2023-07-31T03:24:46;19.30;99.90
17639;DHT22;8938;53.546;9.954;2023-07-31T03:27:12;19.40;99.90
17639;DHT22;8938;53.546;9.954;2023-07-31T03:29:37;19.50;99.90
17639;DHT22;8938;53.546;9.954;2023-07-31T03:32:03;19.40;99.90
17639;DHT22;8938;53.546;9.954;2023-07-31T03:34:28;19.50;99.90
17639;DHT22;8938;53.546;9.954;2023-07-31T03:36:54;19.40;99.90
17639;DHT22;8938;53.546;9.954;2023-07-31T03:39:20;19.40;99.90
17639;DHT22;8938;53.546;9.954;2023-07-31T03:41:45;19.50;99.90
17639;DHT22;8938;53.546;9.954;2023-07-31T03:44:11;19.50;99.90
17639;DHT22;8938;53.546;9.954;2023-07-31T03:46:36;19.50;99.90
17639;DHT22;8938;53.546;9.954;2023-07-31T03:49:02;19.50;99.90
17639;DHT22;8938;53.546;9.954;2023-07-31T03:51:27;19.50;99.90
17639;DHT22;8938;53.546;9.954;2023-07-31T03:53:53;19.50;99.90
17639;DHT22;8938;53.546;9.954;2023-07-31T03:56:18;19.50;99.90
17639;DHT22;8938;53.546;9.954;2023-07-31T03:58:44;19.50;99.90
17639;DHT22;8938;53.546;9.954;2023-07-31T04:01:09;19.50;99.90
17639;DHT22;8938;53.546;9.954;2023-07-31T04:03:35;19.50;99.90
17639;DHT22;8938;53.546;9.954;2023-07-31T04:06:00;19.60;99.90
17639;DHT22;8938;53.546;9.954;2023-07-31T04:08:26;19.60;99.90
17639;DHT22;8938;53.546;9.954;2023-07-31T04:10:51;19.60;99.90
17639;DHT22;8938;53.546;9.954;2023-07-31T04:13:17;19.70;99.90
17639;DHT22;8938;53.546;9.954;2023-07-31T04:15:42;19.70;99.90
17639;DHT22;8938;53.546;9.954;2023-07-31T04:18:08;19.80;99.90
17639;DHT22;8938;53.546;9.954;2023-07-31T04:20:34;19.80;99.90
17639;DHT22;8938;53.546;9.954;2023-07-31T04:22:59;19.80;99.90
17639;DHT22;8938;53.546;9.954;2023-07-31T04:25:25;19.80;99.90
17639;DHT22;8938;53.546;9.954;2023-07-31T04:27:50;19.90;99.90
17639;DHT22;8938;53.546;9.954;2023-07-31T04:30:16;19.80;99.90
17639;DHT22;8938;53.546;9.954;2023-07-31T04:32:41;19.80;99.90
17639;DHT22;8938;53.546;9.954;2023-07-31T04:35:07;19.60;99.90
17639;DHT22;8938;53.546;9.954;2023-07-31T04:37:32;19.60;99.90
17639;DHT22;8938;53.546;9.954;2023-07-31T04:39:58;19.60;99.90
17639;DHT22;8938;53.546;9.954;2023-07-31T04:42:23;19.60;99.90
17639;DHT22;8938;53.546;9.954;2023-07-31T04:44:49;19.50;99.90
17639;DHT22;8938;53.546;9.954;2023-07-31T04:47:15;19.40;99.90
17639;DHT22;8938;53.546;9.954;2023-07-31T04:49:40;19.40;99.90
17639;DHT22;8938;53.546;9.954;2023-07-31T04:52:06;19.40;99.90
17639;DHT22;8938;53.546;9.954;2023-07-31T04:54:31;19.40;99.90
17639;DHT22;8938;53.546;9.954;2023-07-31T04:56:57;19.40;99.90
17639;DHT22;8938;53.546;9.954;2023-07-31T04:59:22;19.30;99.90
17639;DHT22;8938;53.546;9.954;2023-07-31T05:01:48;19.40;99.90
17639;DHT22;8938;53.546;9.954;2023-07-31T05:04:14;19.40;99.90
17639;DHT22;8938;53.546;9.954;2023-07-31T05:06:40;19.40;99.90
17639;DHT22;8938;53.546;9.954;2023-07-31T05:09:06;19.40;99.90
17639;DHT22;8938;53.546;9.954;2023-07-31T05:11:31;19.40;99.90
17639;DHT22;8938;53.546;9.954;2023-07-31T05:13:57;19.40;99.90
17639;DHT22;8938;53.546;9.954;2023-07-31T05:16:22;19.40;99.90
17639;DHT22;8938;53.546;9.954;2023-07-31T05:18:48;19.50;99.90
17639;DHT22;8938;53.546;9.954;2023-07-31T05:21:14;19.40;99.90
17639;DHT22;8938;53.546;9.954;2023-07-31T05:23:39;19.30;99.90
17639;DHT22;8938;53.546;9.954;2023-07-31T05:26:06;19.40;99.90
17639;DHT22;8938;53.546;9.954;2023-07-31T05:28:31;19.40;99.90
17639;DHT22;8938;53.546;9.954;2023-07-31T05:31:01;19.30;99.90
17639;DHT22;8938;53.546;9.954;2023-07-31T05:33:26;19.40;99.90
17639;DHT22;8938;53.546;9.954;2023-07-31T05:35:52;19.40;99.90
17639;DHT22;8938;53.546;9.954;2023-07-31T05:38:18;19.40;99.90
17639;DHT22;8938;53.546;9.954;2023-07-31T05:40:43;19.40;99.90
17639;DHT22;8938;53.546;9.954;2023-07-31T05:43:09;19.40;99.90
17639;DHT22;8938;53.546;9.954;2023-07-31T05:45:35;19.40;99.90
17639;DHT22;8938;53.546;9.954;2023-07-31T05:48:00;19.50;99.90
17639;DHT22;8938;53.546;9.954;2023-07-31T05:50:26;19.60;99.90
17639;DHT22;8938;53.546;9.954;2023-07-31T05:52:51;19.60;99.90
17639;DHT22;8938;53.546;9.954;2023-07-31T05:55:17;19.60;99.90
17639;DHT22;8938;53.546;9.954;2023-07-31T05:57:42;19.60;99.90
17639;DHT22;8938;53.546;9.954;2023-07-31T06:00:11;19.60;99.90
17639;DHT22;8938;53.546;9.954;2023-07-31T06:02:37;19.50;99.90
17639;DHT22;8938;53.546;9.954;2023-07-31T06:05:04;19.50;99.90
17639;DHT22;8938;53.546;9.954;2023-07-31T06:07:31;19.50;99.90
17639;DHT22;8938;53.546;9.954;2023-07-31T06:09:57;19.60;99.90
17639;DHT22;8938;53.546;9.954;2023-07-31T06:12:27;19.60;99.90
17639;DHT22;8938;53.546;9.954;2023-07-31T06:14:52;19.60;99.90
17639;DHT22;8938;53.546;9.954;2023-07-31T06:17:18;19.60;99.90
17639;DHT22;8938;53.546;9.954;2023-07-31T06:19:43;19.60;99.90
17639;DHT22;8938;53.546;9.954;2023-07-31T06:22:09;19.60;99.90
17639;DHT22;8938;53.546;9.954;2023-07-31T06:24:34;19.50;99.90
17639;DHT22;8938;53.546;9.954;2023-07-31T06:27:00;19.50;99.90
17639;DHT22;8938;53.546;9.954;2023-07-31T06:29:28;19.60;99.90
17639;DHT22;8938;53.546;9.954;2023-07-31T06:31:53;19.60;99.90
17639;DHT22;8938;53.546;9.954;2023-07-31T06:34:19;19.50;99.90
17639;DHT22;8938;53.546;9.954;2023-07-31T06:36:44;19.60;99.90
17639;DHT22;8938;53.546;9.954;2023-07-31T06:39:10;19.60;99.90
17639;DHT22;8938;53.546;9.954;2023-07-31T06:41:35;19.60;99.90
17639;DHT22;8938;53.546;9.954;2023-07-31T06:44:01;19.60;99.90
17639;DHT22;8938;53.546;9.954;2023-07-31T06:46:26;19.70;99.90
17639;DHT22;8938;53.546;9.954;2023-07-31T06:48:52;19.60;99.90
17639;DHT22;8938;53.546;9.954;2023-07-31T06:51:18;19.50;99.90
17639;DHT22;8938;53.546;9.954;2023-07-31T06:53:43;19.60;99.90
17639;DHT22;8938;53.546;9.954;2023-07-31T06:56:10;19.70;99.90
17639;DHT22;8938;53.546;9.954;2023-07-31T06:58:36;19.80;99.90
17639;DHT22;8938;53.546;9.954;2023-07-31T07:01:01;19.90;99.90
17639;DHT22;8938;53.546;9.954;2023-07-31T07:03:27;19.90;99.90
17639;DHT22;8938;53.546;9.954;2023-07-31T07:05:53;19.90;99.90
17639;DHT22;8938;53.546;9.954;2023-07-31T07:08:18;19.90;99.90
17639;DHT22;8938;53.546;9.954;2023-07-31T07:10:44;19.80;99.90
17639;DHT22;8938;53.546;9.954;2023-07-31T07:13:09;19.70;99.90
17639;DHT22;8938;53.546;9.954;2023-07-31T07:15:35;19.60;99.90
17639;DHT22;8938;53.546;9.954;2023-07-31T07:18:00;19.60;99.90
17639;DHT22;8938;53.546;9.954;2023-07-31T07:20:26;19.60;99.90
17639;DHT22;8938;53.546;9.954;2023-07-31T07:22:51;19.60;99.90
17639;DHT22;8938;53.546;9.954;2023-07-31T07:25:17;19.50;99.90
17639;DHT22;8938;53.546;9.954;2023-07-31T07:27:42;19.50;99.90
17639;DHT22;8938;53.546;9.954;2023-07-31T07:30:08;19.50;99.90
17639;DHT22;8938;53.546;9.954;2023-07-31T07:32:34;19.60;99.90
17639;DHT22;8938;53.546;9.954;2023-07-31T07:35:00;19.60;99.90
17639;DHT22;8938;53.546;9.954;2023-07-31T07:37:25;19.60;99.90
17639;DHT22;8938;53.546;9.954;2023-07-31T07:39:51;19.70;99.90
17639;DHT22;8938;53.546;9.954;2023-07-31T07:42:16;19.90;99.90
17639;DHT22;8938;53.546;9.954;2023-07-31T07:44:42;20.00;99.90
17639;DHT22;8938;53.546;9.954;2023-07-31T07:47:07;20.00;99.90
17639;DHT22;8938;53.546;9.954;2023-07-31T07:49:34;20.10;99.90
17639;DHT22;8938;53.546;9.954;2023-07-31T07:52:00;20.20;99.90
17639;DHT22;8938;53.546;9.954;2023-07-31T07:54:25;20.20;99.90
17639;DHT22;8938;53.546;9.954;2023-07-31T07:56:51;20.30;99.90
17639;DHT22;8938;53.546;9.954;2023-07-31T07:59:17;20.30;99.90
17639;DHT22;8938;53.546;9.954;2023-07-31T08:01:42;20.40;99.90
17639;DHT22;8938;53.546;9.954;2023-07-31T08:04:08;20.50;99.90
17639;DHT22;8938;53.546;9.954;2023-07-31T08:06:33;20.70;99.90
17639;DHT22;8938;53.546;9.954;2023-07-31T08:08:59;20.80;99.90
17639;DHT22;8938;53.546;9.954;2023-07-31T08:11:25;20.80;99.90
17639;DHT22;8938;53.546;9.954;2023-07-31T08:13:50;20.80;99.90
17639;DHT22;8938;53.546;9.954;2023-07-31T08:16:16;20.90;99.90
17639;DHT22;8938;53.546;9.954;2023-07-31T08:18:41;20.90;99.90
17639;DHT22;8938;53.546;9.954;2023-07-31T08:21:08;20.90;99.90
17639;DHT22;8938;53.546;9.954;2023-07-31T08:23:34;20.80;99.90
17639;DHT22;8938;53.546;9.954;2023-07-31T08:25:59;20.90;99.90
17639;DHT22;8938;53.546;9.954;2023-07-31T08:28:25;21.00;99.90
17639;DHT22;8938;53.546;9.954;2023-07-31T08:30:50;21.10;99.90
17639;DHT22;8938;53.546;9.954;2023-07-31T08:33:16;21.10;99.90
17639;DHT22;8938;53.546;9.954;2023-07-31T08:35:41;21.20;99.90
17639;DHT22;8938;53.546;9.954;2023-07-31T08:38:07;21.20;99.90
17639;DHT22;8938;53.546;9.954;2023-07-31T08:40:36;21.30;99.90
17639;DHT22;8938;53.546;9.954;2023-07-31T08:43:02;21.40;99.90
17639;DHT22;8938;53.546;9.954;2023-07-31T08:45:28;21.50;99.90
17639;DHT22;8938;53.546;9.954;2023-07-31T08:47:55;21.60;99.90
17639;DHT22;8938;53.546;9.954;2023-07-31T08:50:22;21.70;99.90
17639;DHT22;8938;53.546;9.954;2023-07-31T08:52:49;21.90;99.90
17639;DHT22;8938;53.546;9.954;2023-07-31T08:55:15;21.90;99.90
17639;DHT22;8938;53.546;9.954;2023-07-31T08:57:42;21.80;99.90
17639;DHT22;8938;53.546;9.954;2023-07-31T09:00:09;21.80;99.90
17639;DHT22;8938;53.546;9.954;2023-07-31T09:02:44;21.80;99.90
17639;DHT22;8938;53.546;9.954;2023-07-31T09:05:11;21.70;99.90
17639;DHT22;8938;53.546;9.954;2023-07-31T09:07:37;21.80;99.90
17639;DHT22;8938;53.546;9.954;2023-07-31T09:10:03;21.80;99.90
17639;DHT22;8938;53.546;9.954;2023-07-31T09:12:30;21.70;99.90
17639;DHT22;8938;53.546;9.954;2023-07-31T09:14:57;21.70;99.90
17639;DHT22;8938;53.546;9.954;2023-07-31T09:17:30;21.70;99.90
17639;DHT22;8938;53.546;9.954;2023-07-31T09:19:56;21.70;99.90
17639;DHT22;8938;53.546;9.954;2023-07-31T09:22:32;21.70;99.90
17639;DHT22;8938;53.546;9.954;2023-07-31T09:25:17;21.70;99.90
17639;DHT22;8938;53.546;9.954;2023-07-31T09:30:17;21.70;99.90
17639;DHT22;8938;53.546;9.954;2023-07-31T09:32:43;21.80;99.90
17639;DHT22;8938;53.546;9.954;2023-07-31T09:35:22;21.80;99.90
17639;DHT22;8938;53.546;9.954;2023-07-31T09:37:52;21.80;99.90
17639;DHT22;8938;53.546;9.954;2023-07-31T09:40:31;21.80;99.90
17639;DHT22;8938;53.546;9.954;2023-07-31T09:42:59;21.90;99.90
17639;DHT22;8938;53.546;9.954;2023-07-31T09:45:25;21.90;99.90
17639;DHT22;8938;53.546;9.954;2023-07-31T09:47:51;22.00;99.90
17639;DHT22;8938;53.546;9.954;2023-07-31T09:50:17;22.10;99.90
17639;DHT22;8938;53.546;9.954;2023-07-31T09:52:43;22.30;99.90
17639;DHT22;8938;53.546;9.954;2023-07-31T09:55:09;22.30;99.90
17639;DHT22;8938;53.546;9.954;2023-07-31T09:57:44;22.20;99.90
17639;DHT22;8938;53.546;9.954;2023-07-31T10:00:11;22.20;99.90
17639;DHT22;8938;53.546;9.954;2023-07-31T10:02:38;22.20;99.90
17639;DHT22;8938;53.546;9.954;2023-07-31T10:05:05;22.20;99.90
17639;DHT22;8938;53.546;9.954;2023-07-31T10:07:34;22.10;99.90
17639;DHT22;8938;53.546;9.954;2023-07-31T10:10:01;22.00;99.90
17639;DHT22;8938;53.546;9.954;2023-07-31T10:12:29;21.90;99.90
17639;DHT22;8938;53.546;9.954;2023-07-31T10:14:56;21.80;99.90
17639;DHT22;8938;53.546;9.954;2023-07-31T10:17:22;21.70;99.90
17639;DHT22;8938;53.546;9.954;2023-07-31T10:19:49;21.90;99.90
17639;DHT22;8938;53.546;9.954;2023-07-31T10:22:15;21.90;99.90
17639;DHT22;8938;53.546;9.954;2023-07-31T10:24:45;21.70;99.90
17639;DHT22;8938;53.546;9.954;2023-07-31T10:27:11;21.70;99.90
17639;DHT22;8938;53.546;9.954;2023-07-31T10:29:38;21.70;99.90
17639;DHT22;8938;53.546;9.954;2023-07-31T10:32:06;21.70;99.90
17639;DHT22;8938;53.546;9.954;2023-07-31T10:34:34;21.70;99.90
17639;DHT22;8938;53.546;9.954;2023-07-31T10:37:39;21.70;99.90
17639;DHT22;8938;53.546;9.954;2023-07-31T10:42:36;21.50;99.90
17639;DHT22;8938;53.546;9.954;2023-07-31T10:45:09;21.20;99.90
17639;DHT22;8938;53.546;9.954;2023-07-31T10:47:45;21.10;99.90
17639;DHT22;8938;53.546;9.954;2023-07-31T10:50:21;20.90;99.90
17639;DHT22;8938;53.546;9.954;2023-07-31T10:52:57;20.80;99.90
17639;DHT22;8938;53.546;9.954;2023-07-31T10:55:42;21.00;99.90
17639;DHT22;8938;53.546;9.954;2023-07-31T10:58:10;21.10;99.90
17639;DHT22;8938;53.546;9.954;2023-07-31T11:00:44;21.20;99.90
17639;DHT22;8938;53.546;9.954;2023-07-31T11:03:17;21.20;99.90
17639;DHT22;8938;53.546;9.954;2023-07-31T11:08:24;21.40;99.90
17639;DHT22;8938;53.546;9.954;2023-07-31T11:11:04;21.60;99.90
17639;DHT22;8938;53.546;9.954;2023-07-31T11:13:31;21.60;99.90
17639;DHT22;8938;53.546;9.954;2023-07-31T11:15:57;21.80;99.90
17639;DHT22;8938;53.546;9.954;2023-07-31T11:18:23;21.90;99.90
17639;DHT22;8938;53.546;9.954;2023-07-31T11:20:49;21.90;99.90
17639;DHT22;8938;53.546;9.954;2023-07-31T11:23:16;21.90;99.90
17639;DHT22;8938;53.546;9.954;2023-07-31T11:25:42;21.70;99.90
17639;DHT22;8938;53.546;9.954;2023-07-31T11:28:10;21.40;99.90
17639;DHT22;8938;53.546;9.954;2023-07-31T11:30:36;21.10;99.90
17639;DHT22;8938;53.546;9.954;2023-07-31T11:33:03;21.00;99.90
17639;DHT22;8938;53.546;9.954;2023-07-31T11:35:33;21.00;99.90
17639;DHT22;8938;53.546;9.954;2023-07-31T11:37:59;20.90;99.90
17639;DHT22;8938;53.546;9.954;2023-07-31T11:40:25;21.00;99.90
17639;DHT22;8938;53.546;9.954;2023-07-31T11:43:03;21.00;99.90
17639;DHT22;8938;53.546;9.954;2023-07-31T11:45:30;20.90;99.90
17639;DHT22;8938;53.546;9.954;2023-07-31T11:47:56;20.80;99.90
17639;DHT22;8938;53.546;9.954;2023-07-31T11:50:22;20.80;99.90
17639;DHT22;8938;53.546;9.954;2023-07-31T11:52:54;20.70;99.90
17639;DHT22;8938;53.546;9.954;2023-07-31T11:55:21;20.60;99.90
17639;DHT22;8938;53.546;9.954;2023-07-31T11:57:47;20.60;99.90
17639;DHT22;8938;53.546;9.954;2023-07-31T12:00:13;20.70;99.90
17639;DHT22;8938;53.546;9.954;2023-07-31T12:02:40;20.80;99.90
17639;DHT22;8938;53.546;9.954;2023-07-31T12:05:11;20.80;99.90
17639;DHT22;8938;53.546;9.954;2023-07-31T12:07:51;20.70;99.90
17639;DHT22;8938;53.546;9.954;2023-07-31T12:10:28;20.70;99.90
17639;DHT22;8938;53.546;9.954;2023-07-31T12:13:03;20.60;99.90
17639;DHT22;8938;53.546;9.954;2023-07-31T12:15:36;20.50;99.90
17639;DHT22;8938;53.546;9.954;2023-07-31T12:20:34;20.40;99.90
17639;DHT22;8938;53.546;9.954;2023-07-31T12:23:00;20.40;99.90
17639;DHT22;8938;53.546;9.954;2023-07-31T12:25:32;20.40;99.90
17639;DHT22;8938;53.546;9.954;2023-07-31T12:28:04;20.30;99.90
17639;DHT22;8938;53.546;9.954;2023-07-31T12:30:33;20.30;99.90
17639;DHT22;8938;53.546;9.954;2023-07-31T12:33:06;20.40;99.90
17639;DHT22;8938;53.546;9.954;2023-07-31T12:35:37;20.50;99.90
17639;DHT22;8938;53.546;9.954;2023-07-31T12:38:03;20.70;99.90
17639;DHT22;8938;53.546;9.954;2023-07-31T12:40:29;20.70;99.90
17639;DHT22;8938;53.546;9.954;2023-07-31T12:42:55;20.50;99.90
17639;DHT22;8938;53.546;9.954;2023-07-31T12:45:20;20.50;99.90
17639;DHT22;8938;53.546;9.954;2023-07-31T12:47:46;20.30;99.90
17639;DHT22;8938;53.546;9.954;2023-07-31T12:50:12;20.30;99.90
17639;DHT22;8938;53.546;9.954;2023-07-31T12:52:38;20.30;99.90
17639;DHT22;8938;53.546;9.954;2023-07-31T12:55:03;20.30;99.90
17639;DHT22;8938;53.546;9.954;2023-07-31T12:57:30;20.20;99.90
17639;DHT22;8938;53.546;9.954;2023-07-31T12:59:55;20.10;99.90
17639;DHT22;8938;53.546;9.954;2023-07-31T13:02:21;20.20;99.90
17639;DHT22;8938;53.546;9.954;2023-07-31T13:04:47;20.00;99.90
17639;DHT22;8938;53.546;9.954;2023-07-31T13:07:12;20.00;99.90
17639;DHT22;8938;53.546;9.954;2023-07-31T13:09:38;19.90;99.90
17639;DHT22;8938;53.546;9.954;2023-07-31T13:12:04;20.00;99.90
17639;DHT22;8938;53.546;9.954;2023-07-31T13:14:29;19.70;99.90
17639;DHT22;8938;53.546;9.954;2023-07-31T13:16:55;19.60;99.90
17639;DHT22;8938;53.546;9.954;2023-07-31T13:19:20;19.50;99.90
17639;DHT22;8938;53.546;9.954;2023-07-31T13:21:46;19.60;99.90
17639;DHT22;8938;53.546;9.954;2023-07-31T13:24:11;19.60;99.90
17639;DHT22;8938;53.546;9.954;2023-07-31T13:26:37;19.70;99.90
17639;DHT22;8938;53.546;9.954;2023-07-31T13:29:02;19.90;99.90
17639;DHT22;8938;53.546;9.954;2023-07-31T13:31:28;20.00;99.90
17639;DHT22;8938;53.546;9.954;2023-07-31T13:33:53;20.00;99.90
17639;DHT22;8938;53.546;9.954;2023-07-31T13:36:19;20.10;99.90
17639;DHT22;8938;53.546;9.954;2023-07-31T13:38:44;20.20;99.90
17639;DHT22;8938;53.546;9.954;2023-07-31T13:41:10;20.10;99.90
17639;DHT22;8938;53.546;9.954;2023-07-31T13:43:35;20.20;99.90
17639;DHT22;8938;53.546;9.954;2023-07-31T13:46:01;20.20;99.90
17639;DHT22;8938;53.546;9.954;2023-07-31T13:48:34;20.30;99.90
17639;DHT22;8938;53.546;9.954;2023-07-31T13:51:00;20.30;99.90
17639;DHT22;8938;53.546;9.954;2023-07-31T13:53:25;20.40;99.90
17639;DHT22;8938;53.546;9.954;2023-07-31T13:55:51;20.40;99.90
17639;DHT22;8938;53.546;9.954;2023-07-31T13:58:17;20.40;99.90
17639;DHT22;8938;53.546;9.954;2023-07-31T14:00:43;20.40;99.90
17639;DHT22;8938;53.546;9.954;2023-07-31T14:03:08;20.50;99.90
17639;DHT22;8938;53.546;9.954;2023-07-31T14:05:35;20.60;99.90
17639;DHT22;8938;53.546;9.954;2023-07-31T14:08:00;20.70;99.90
17639;DHT22;8938;53.546;9.954;2023-07-31T14:10:26;20.90;99.90
17639;DHT22;8938;53.546;9.954;2023-07-31T14:12:51;20.90;99.90
17639;DHT22;8938;53.546;9.954;2023-07-31T14:15:17;21.00;99.90
17639;DHT22;8938;53.546;9.954;2023-07-31T14:17:42;20.90;99.90
17639;DHT22;8938;53.546;9.954;2023-07-31T14:20:08;20.90;99.90
17639;DHT22;8938;53.546;9.954;2023-07-31T14:22:34;20.90;99.90
17639;DHT22;8938;53.546;9.954;2023-07-31T14:25:00;20.90;99.90
17639;DHT22;8938;53.546;9.954;2023-07-31T14:27:26;20.90;99.90
17639;DHT22;8938;53.546;9.954;2023-07-31T14:29:51;21.00;99.90
17639;DHT22;8938;53.546;9.954;2023-07-31T14:32:17;21.00;99.90
17639;DHT22;8938;53.546;9.954;2023-07-31T14:34:42;21.10;99.90
17639;DHT22;8938;53.546;9.954;2023-07-31T14:37:08;21.10;99.90
17639;DHT22;8938;53.546;9.954;2023-07-31T14:39:33;21.30;99.90
17639;DHT22;8938;53.546;9.954;2023-07-31T14:41:59;21.10;99.90
17639;DHT22;8938;53.546;9.954;2023-07-31T14:44:24;21.10;99.90
17639;DHT22;8938;53.546;9.954;2023-07-31T14:46:50;21.00;99.90
17639;DHT22;8938;53.546;9.954;2023-07-31T14:49:15;21.00;99.90
17639;DHT22;8938;53.546;9.954;2023-07-31T14:51:41;21.00;99.90
17639;DHT22;8938;53.546;9.954;2023-07-31T14:54:06;20.90;99.90
17639;DHT22;8938;53.546;9.954;2023-07-31T14:56:32;20.90;99.90
17639;DHT22;8938;53.546;9.954;2023-07-31T14:58:57;21.10;99.90
17639;DHT22;8938;53.546;9.954;2023-07-31T15:01:23;21.00;99.90
17639;DHT22;8938;53.546;9.954;2023-07-31T15:03:49;20.90;99.90
17639;DHT22;8938;53.546;9.954;2023-07-31T15:06:14;21.10;99.90
17639;DHT22;8938;53.546;9.954;2023-07-31T15:08:40;21.10;99.90
17639;DHT22;8938;53.546;9.954;2023-07-31T15:11:06;21.10;99.90
17639;DHT22;8938;53.546;9.954;2023-07-31T15:13:32;21.10;99.90
17639;DHT22;8938;53.546;9.954;2023-07-31T15:15:58;21.20;99.90
17639;DHT22;8938;53.546;9.954;2023-07-31T15:18:23;21.20;99.90
17639;DHT22;8938;53.546;9.954;2023-07-31T15:20:49;21.20;99.90
17639;DHT22;8938;53.546;9.954;2023-07-31T15:23:14;21.20;99.90
17639;DHT22;8938;53.546;9.954;2023-07-31T15:25:40;21.20;99.90
17639;DHT22;8938;53.546;9.954;2023-07-31T15:28:05;21.20;99.90
17639;DHT22;8938;53.546;9.954;2023-07-31T15:30:32;21.20;99.90
17639;DHT22;8938;53.546;9.954;2023-07-31T15:32:59;21.30;99.90
17639;DHT22;8938;53.546;9.954;2023-07-31T15:35:24;21.40;99.90
17639;DHT22;8938;53.546;9.954;2023-07-31T15:37:50;21.30;99.90
17639;DHT22;8938;53.546;9.954;2023-07-31T15:40:15;21.30;99.90
17639;DHT22;8938;53.546;9.954;2023-07-31T15:42:41;21.20;99.90
17639;DHT22;8938;53.546;9.954;2023-07-31T15:45:08;21.10;99.90
17639;DHT22;8938;53.546;9.954;2023-07-31T15:47:35;21.10;99.90
17639;DHT22;8938;53.546;9.954;2023-07-31T15:50:01;21.10;99.90
17639;DHT22;8938;53.546;9.954;2023-07-31T15:52:27;21.00;99.90
17639;DHT22;8938;53.546;9.954;2023-07-31T15:54:53;21.20;99.90
17639;DHT22;8938;53.546;9.954;2023-07-31T15:57:18;21.00;99.90
17639;DHT22;8938;53.546;9.954;2023-07-31T15:59:44;21.10;99.90